createdAt,value
2022-09-29T00:00:40.914Z,62.3
2022-09-29T00:01:42.216Z,62.1
2022-09-29T00:02:44.130Z,61.9
2022-09-29T00:03:45.974Z,61.9
2022-09-29T00:04:46.980Z,61.8
2022-09-29T00:05:47.994Z,61.6
2022-09-29T00:06:49.002Z,61.6
2022-09-29T00:07:49.994Z,61.6
2022-09-29T00:08:50.994Z,61.5
2022-09-29T00:09:51.984Z,61.4
2022-09-29T00:10:52.974Z,61.5
2022-09-29T00:11:53.897Z,61.4
2022-09-29T00:12:55.354Z,61.6
2022-09-29T00:13:57.076Z,61.5
2022-09-29T00:14:59.175Z,61.4
2022-09-29T00:16:00.987Z,61.3
2022-09-29T00:17:02.174Z,61.2
2022-09-29T00:18:19.533Z,61.1
2022-09-29T00:19:05.995Z,61.1
2022-09-29T00:20:07.068Z,61.2
2022-09-29T00:21:08.014Z,61.1
2022-09-29T00:22:08.935Z,61.1
2022-09-29T00:23:09.934Z,61.1
2022-09-29T00:24:11.074Z,61.3
2022-09-29T00:25:12.194Z,61.6
2022-09-29T00:26:13.886Z,61.7
2022-09-29T00:27:14.934Z,61.7
2022-09-29T00:28:15.967Z,61.8
2022-09-29T00:29:16.960Z,61.8
2022-09-29T00:30:18.082Z,61.9
2022-09-29T00:31:20.019Z,61.8
2022-09-29T00:32:20.954Z,61.8
2022-09-29T00:33:21.934Z,61.9
2022-09-29T00:34:22.996Z,61.8
2022-09-29T00:35:24.159Z,62
2022-09-29T00:36:25.920Z,61.9
2022-09-29T00:37:27.135Z,61.8
2022-09-29T00:38:29.235Z,61.8
2022-09-29T00:39:31.121Z,61.6
2022-09-29T00:40:33.264Z,61.4
2022-09-29T00:41:34.957Z,61.5
2022-09-29T00:42:36.042Z,61.3
2022-09-29T00:43:37.016Z,61.2
2022-09-29T00:44:38.015Z,61.2
2022-09-29T00:45:39.043Z,61.3
2022-09-29T00:46:39.954Z,61.2
2022-09-29T00:47:40.919Z,61.3
2022-09-29T00:48:42.254Z,61.3
2022-09-29T00:49:43.954Z,61.3
2022-09-29T00:50:45.071Z,61.3
2022-09-29T00:51:45.996Z,61.1
2022-09-29T00:52:46.980Z,61.1
2022-09-29T00:53:48.016Z,61.1
2022-09-29T00:54:49.035Z,61.1
2022-09-29T00:55:49.975Z,60.6
2022-09-29T00:56:51.060Z,60.8
2022-09-29T00:57:51.955Z,61
2022-09-29T00:58:52.987Z,61
2022-09-29T00:59:53.960Z,60.9
2022-09-29T01:04:00.041Z,60.5
2022-09-29T01:05:00.920Z,60.4
2022-09-29T01:06:02.065Z,60.2
2022-09-29T01:07:03.055Z,60
2022-09-29T01:08:04.014Z,59.6
2022-09-29T01:09:05.016Z,59.5
2022-09-29T01:10:06.034Z,58.8
2022-09-29T01:11:06.981Z,59.3
2022-09-29T01:12:08.060Z,59.2
2022-09-29T01:13:08.953Z,59.1
2022-09-29T01:14:09.994Z,59
2022-09-29T01:15:11.033Z,59
2022-09-29T01:16:12.070Z,58.9
2022-09-29T01:17:12.953Z,58.7
2022-09-29T01:18:14.001Z,58.7
2022-09-29T01:19:14.953Z,58.7
2022-09-29T01:20:15.994Z,58.4
2022-09-29T01:21:17.059Z,58.4
2022-09-29T01:22:18.134Z,58.2
2022-09-29T01:23:19.961Z,58.2
2022-09-29T01:24:21.093Z,58.4
2022-09-29T01:25:21.974Z,58.4
2022-09-29T01:26:22.925Z,58.7
2022-09-29T01:27:23.974Z,58.7
2022-09-29T01:28:25.003Z,58.6
2022-09-29T01:29:26.062Z,58.4
2022-09-29T01:30:27.054Z,58.4
2022-09-29T01:31:28.059Z,58.3
2022-09-29T01:32:29.014Z,58.1
2022-09-29T01:33:29.955Z,58.1
2022-09-29T01:34:31.013Z,58
2022-09-29T01:35:32.034Z,58.1
2022-09-29T01:36:33.047Z,58.4
2022-09-29T01:37:34.034Z,58.5
2022-09-29T01:38:34.945Z,58.6
2022-09-29T01:39:35.983Z,58.8
2022-09-29T01:40:37.205Z,59
2022-09-29T01:41:39.054Z,59.1
2022-09-29T01:42:40.014Z,59.4
2022-09-29T01:43:41.123Z,59.7
2022-09-29T01:44:43.014Z,60.1
2022-09-29T01:45:44.254Z,60.4
2022-09-29T01:46:46.014Z,60.7
2022-09-29T01:47:46.953Z,60.7
2022-09-29T01:48:48.074Z,60.7
2022-09-29T01:49:49.034Z,60.9
2022-09-29T01:50:50.015Z,61
2022-09-29T01:51:51.200Z,60.8
2022-09-29T01:52:53.013Z,60.7
2022-09-29T01:53:54.021Z,60.4
2022-09-29T01:54:55.021Z,60.3
2022-09-29T01:55:56.473Z,60.1
2022-09-29T01:56:58.054Z,59.8
2022-09-29T01:57:58.974Z,59.6
2022-09-29T01:59:00.055Z,59.6
2022-09-29T02:00:01.042Z,59.7
2022-09-29T02:01:02.163Z,59.7
2022-09-29T02:02:03.069Z,59.9
2022-09-29T02:03:04.053Z,60
2022-09-29T02:04:04.995Z,60.1
2022-09-29T02:05:06.013Z,60.3
2022-09-29T02:06:07.035Z,60.5
2022-09-29T02:07:08.020Z,60.8
2022-09-29T02:08:09.082Z,61.2
2022-09-29T02:09:09.973Z,61.9
2022-09-29T02:10:11.050Z,62.5
2022-09-29T02:11:12.013Z,63
2022-09-29T02:12:12.994Z,63
2022-09-29T02:13:14.055Z,63.4
2022-09-29T02:14:15.104Z,63.4
2022-09-29T02:15:16.313Z,63.2
2022-09-29T02:16:18.059Z,63.2
2022-09-29T02:17:19.014Z,63
2022-09-29T02:18:20.053Z,62.7
2022-09-29T02:19:21.063Z,62.2
2022-09-29T02:20:22.014Z,62
2022-09-29T02:21:23.082Z,62
2022-09-29T02:22:24.044Z,61.3
2022-09-29T02:23:25.035Z,61.5
2022-09-29T02:24:26.043Z,61.8
2022-09-29T02:25:27.034Z,62.1
2022-09-29T02:26:28.013Z,62.6
2022-09-29T02:27:28.981Z,63
2022-09-29T02:28:30.050Z,63
2022-09-29T02:29:31.013Z,63.5
2022-09-29T02:30:32.014Z,63.6
2022-09-29T02:31:33.035Z,63.6
2022-09-29T02:32:34.014Z,63.7
2022-09-29T02:33:35.142Z,63.7
2022-09-29T02:34:37.274Z,63.7
2022-09-29T02:35:39.224Z,63.6
2022-09-29T02:36:41.221Z,63.6
2022-09-29T02:37:43.257Z,63.5
2022-09-29T02:38:45.180Z,63.4
2022-09-29T02:39:47.054Z,63.3
2022-09-29T02:40:48.031Z,63.2
2022-09-29T02:41:49.022Z,63.4
2022-09-29T02:42:50.054Z,63.5
2022-09-29T02:43:51.094Z,63.6
2022-09-29T02:44:52.034Z,63.5
2022-09-29T02:45:53.118Z,63.5
2022-09-29T02:46:54.056Z,63.5
2022-09-29T02:47:55.001Z,63.6
2022-09-29T02:48:56.533Z,63.7
2022-09-29T02:49:58.117Z,63.6
2022-09-29T02:50:59.054Z,63.4
2022-09-29T02:52:00.015Z,63.1
2022-09-29T02:53:01.006Z,62.7
2022-09-29T02:54:02.141Z,62.4
2022-09-29T02:55:03.101Z,62
2022-09-29T02:56:04.096Z,61.8
2022-09-29T02:57:05.062Z,61.3
2022-09-29T02:58:06.094Z,60.8
2022-09-29T02:59:07.116Z,60.4
2022-09-29T03:00:08.134Z,59.9
2022-09-29T03:01:09.085Z,59.6
2022-09-29T03:02:09.953Z,59.4
2022-09-29T03:03:11.080Z,59.3
2022-09-29T03:04:12.158Z,59.3
2022-09-29T03:05:14.273Z,59.3
2022-09-29T03:06:16.173Z,59.3
2022-09-29T03:07:18.094Z,59.2
2022-09-29T03:08:19.049Z,59.2
2022-09-29T03:09:19.973Z,59.3
2022-09-29T03:10:21.173Z,59.3
2022-09-29T03:11:23.073Z,59.3
2022-09-29T03:12:24.053Z,59.1
2022-09-29T03:13:25.055Z,58.9
2022-09-29T03:14:26.027Z,58.7
2022-09-29T03:15:27.034Z,58.8
2022-09-29T03:16:28.136Z,58.7
2022-09-29T03:17:29.055Z,58.8
2022-09-29T03:18:30.055Z,59
2022-09-29T03:19:31.017Z,58.8
2022-09-29T03:20:32.053Z,58.5
2022-09-29T03:21:33.062Z,58.5
2022-09-29T03:22:34.156Z,58.6
2022-09-29T03:23:36.305Z,58.7
2022-09-29T03:24:38.081Z,58.4
2022-09-29T03:25:39.053Z,58.5
2022-09-29T03:26:40.034Z,57.9
2022-09-29T03:27:41.074Z,58.4
2022-09-29T03:28:42.034Z,58.8
2022-09-29T03:29:43.217Z,59
2022-09-29T03:30:45.036Z,59.1
2022-09-29T03:31:46.094Z,59.2
2022-09-29T03:32:46.978Z,59
2022-09-29T03:33:48.033Z,58.8
2022-09-29T03:34:49.036Z,58.8
2022-09-29T03:35:50.055Z,58.7
2022-09-29T03:36:51.093Z,58.5
2022-09-29T03:37:52.104Z,58.5
2022-09-29T03:38:53.118Z,58.5
2022-09-29T03:39:54.143Z,58.5
2022-09-29T03:40:55.081Z,58.8
2022-09-29T03:41:56.633Z,58.9
2022-09-29T03:42:58.013Z,59
2022-09-29T03:43:59.015Z,59.1
2022-09-29T03:45:00.089Z,59
2022-09-29T03:46:01.226Z,59.1
2022-09-29T03:47:02.015Z,59.1
2022-09-29T03:48:03.034Z,59.3
2022-09-29T03:49:04.015Z,59.3
2022-09-29T03:50:05.138Z,59.1
2022-09-29T03:51:06.097Z,59.1
2022-09-29T03:52:07.073Z,59.1
2022-09-29T03:53:08.053Z,59.1
2022-09-29T03:54:09.138Z,59.1
2022-09-29T03:55:10.222Z,59.1
2022-09-29T03:56:12.040Z,59
2022-09-29T03:57:13.214Z,58.9
2022-09-29T03:58:15.073Z,58.9
2022-09-29T03:59:16.170Z,58.5
2022-09-29T04:00:17.233Z,58.8
2022-09-29T04:01:19.339Z,59
2022-09-29T04:02:21.206Z,59.1
2022-09-29T04:03:22.055Z,59.2
2022-09-29T04:04:23.113Z,59.2
2022-09-29T04:05:24.065Z,59.2
2022-09-29T04:06:25.114Z,59.2
2022-09-29T04:07:26.053Z,59.2
2022-09-29T04:08:27.062Z,59.3
2022-09-29T04:09:28.117Z,59.4
2022-09-29T04:10:29.033Z,59.3
2022-09-29T04:11:30.093Z,59.2
2022-09-29T04:12:31.053Z,59.3
2022-09-29T04:13:32.035Z,59.4
2022-09-29T04:14:33.020Z,59.4
2022-09-29T04:15:34.056Z,59.4
2022-09-29T04:16:35.175Z,59.4
2022-09-29T04:17:36.073Z,59.4
2022-09-29T04:18:37.113Z,59.3
2022-09-29T04:19:38.093Z,58.8
2022-09-29T04:20:39.202Z,59
2022-09-29T04:21:41.074Z,59.1
2022-09-29T04:22:42.033Z,59
2022-09-29T04:23:43.213Z,59.1
2022-09-29T04:24:45.259Z,59.1
2022-09-29T04:25:47.176Z,59.1
2022-09-29T04:26:49.033Z,59.1
2022-09-29T04:27:50.023Z,59.1
2022-09-29T04:28:51.493Z,59
2022-09-29T04:29:53.082Z,59.1
2022-09-29T04:30:54.149Z,59
2022-09-29T04:31:55.143Z,58.8
2022-09-29T04:32:56.093Z,58.8
2022-09-29T04:33:57.272Z,58.8
2022-09-29T04:34:59.273Z,58.8
2022-09-29T04:36:00.985Z,58.9
2022-09-29T04:37:02.190Z,58.8
2022-09-29T04:38:04.273Z,58.8
2022-09-29T04:39:06.333Z,58.8
2022-09-29T04:40:08.130Z,58.9
2022-09-29T04:41:09.007Z,58.9
2022-09-29T04:42:09.975Z,59
2022-09-29T04:43:11.281Z,59.1
2022-09-29T04:44:13.136Z,59
2022-09-29T04:45:14.061Z,59.1
2022-09-29T04:46:15.290Z,59.2
2022-09-29T04:47:16.032Z,59.1
2022-09-29T04:48:17.090Z,59
2022-09-29T04:49:18.094Z,58.9
2022-09-29T04:50:19.061Z,58.9
2022-09-29T04:51:20.114Z,58.9
2022-09-29T04:52:21.066Z,58.7
2022-09-29T04:53:22.132Z,58.6
2022-09-29T04:54:23.082Z,58.7
2022-09-29T04:55:24.245Z,58.7
2022-09-29T04:56:26.115Z,58.7
2022-09-29T04:57:27.081Z,58.8
2022-09-29T04:58:28.053Z,58.6
2022-09-29T04:59:29.114Z,58.6
2022-09-29T05:00:29.974Z,58.6
2022-09-29T05:01:31.113Z,58.6
2022-09-29T05:02:32.169Z,58.7
2022-09-29T05:03:33.114Z,58.9
2022-09-29T05:04:34.223Z,58.8
2022-09-29T05:05:36.133Z,58.8
2022-09-29T05:06:37.194Z,58.8
2022-09-29T05:07:38.153Z,58.7
2022-09-29T05:08:39.114Z,58.7
2022-09-29T05:09:40.153Z,58.7
2022-09-29T05:10:41.087Z,58.8
2022-09-29T05:11:42.036Z,58.9
2022-09-29T05:12:43.262Z,58.2
2022-09-29T05:13:45.254Z,58.7
2022-09-29T05:14:47.220Z,58.9
2022-09-29T05:15:49.217Z,59
2022-09-29T05:16:51.113Z,59.1
2022-09-29T05:17:52.058Z,59.1
2022-09-29T05:18:53.169Z,59
2022-09-29T05:19:54.113Z,59
2022-09-29T05:21:16.083Z,59
2022-09-29T05:21:56.133Z,59
2022-09-29T05:22:57.094Z,59.2
2022-09-29T05:23:58.313Z,59.2
2022-09-29T05:25:00.233Z,59.2
2022-09-29T05:26:02.168Z,59.3
2022-09-29T05:27:03.081Z,59.2
2022-09-29T05:28:04.133Z,59.3
2022-09-29T05:29:05.053Z,59.3
2022-09-29T05:30:06.156Z,59.4
2022-09-29T05:31:07.288Z,59.6
2022-09-29T05:32:09.276Z,60
2022-09-29T05:33:11.134Z,60
2022-09-29T05:34:12.082Z,60
2022-09-29T05:35:13.083Z,60.1
2022-09-29T05:36:14.137Z,60.3
2022-09-29T05:37:15.093Z,60.1
2022-09-29T05:38:16.093Z,60.1
2022-09-29T05:39:17.305Z,60
2022-09-29T05:40:19.146Z,60
2022-09-29T05:41:20.117Z,60.1
2022-09-29T05:42:21.160Z,60
2022-09-29T05:43:22.227Z,60
2022-09-29T05:44:24.195Z,59.9
2022-09-29T05:45:25.133Z,59.7
2022-09-29T05:46:26.093Z,59.6
2022-09-29T05:47:27.151Z,59.9
2022-09-29T05:48:28.150Z,59.8
2022-09-29T05:49:29.133Z,59.9
2022-09-29T05:50:30.142Z,60.1
2022-09-29T05:51:31.135Z,60.3
2022-09-29T05:52:32.133Z,60.3
2022-09-29T05:53:33.138Z,60.2
2022-09-29T05:54:34.117Z,60.1
2022-09-29T05:55:35.174Z,60.1
2022-09-29T05:56:36.139Z,60
2022-09-29T05:57:37.181Z,59.9
2022-09-29T05:58:38.182Z,59.9
2022-09-29T05:59:39.149Z,59.8
2022-09-29T06:00:40.169Z,59.8
2022-09-29T06:01:41.295Z,59.7
2022-09-29T06:02:43.294Z,59.5
2022-09-29T06:03:45.253Z,59.5
2022-09-29T06:04:47.077Z,58.6
2022-09-29T06:05:48.093Z,58.3
2022-09-29T06:06:49.155Z,58.2
2022-09-29T06:07:50.134Z,57.9
2022-09-29T06:08:51.093Z,57.9
2022-09-29T06:09:52.211Z,58.3
2022-09-29T06:10:53.097Z,58.7
2022-09-29T06:11:54.182Z,58.5
2022-09-29T06:12:55.113Z,58.4
2022-09-29T06:13:56.187Z,58.4
2022-09-29T06:14:57.238Z,58.1
2022-09-29T06:15:58.138Z,57
2022-09-29T06:16:59.243Z,57.1
2022-09-29T06:18:00.113Z,56.8
2022-09-29T06:19:01.134Z,56.6
2022-09-29T06:20:02.214Z,56.5
2022-09-29T06:21:03.313Z,56.5
2022-09-29T06:22:05.213Z,56.1
2022-09-29T06:23:07.215Z,56
2022-09-29T06:24:08.114Z,55.9
2022-09-29T06:25:09.115Z,55.5
2022-09-29T06:26:10.222Z,55.3
2022-09-29T06:27:11.218Z,55.2
2022-09-29T06:28:12.233Z,55
2022-09-29T06:29:13.186Z,53.9
2022-09-29T06:30:14.087Z,53.2
2022-09-29T06:31:15.219Z,52.6
2022-09-29T06:32:16.213Z,52.7
2022-09-29T06:33:17.097Z,52.4
2022-09-29T06:34:18.242Z,52.2
2022-09-29T06:35:20.294Z,52.2
2022-09-29T06:36:22.173Z,51.9
2022-09-29T06:37:23.173Z,52.1
2022-09-29T06:38:24.361Z,52.2
2022-09-29T06:39:26.204Z,52.1
2022-09-29T06:40:27.263Z,52.3
2022-09-29T06:41:28.097Z,52.2
2022-09-29T06:42:29.136Z,51.8
2022-09-29T06:43:30.216Z,51.8
2022-09-29T06:44:31.133Z,51.8
2022-09-29T06:45:32.228Z,51.5
2022-09-29T06:46:33.135Z,51.3
2022-09-29T06:47:34.113Z,51.3
2022-09-29T06:48:35.202Z,51.9
2022-09-29T06:49:36.153Z,51.6
2022-09-29T06:50:37.113Z,51.3
2022-09-29T06:51:44.799Z,51.4
2022-09-29T06:52:39.194Z,51.5
2022-09-29T06:53:40.184Z,51.2
2022-09-29T06:54:41.273Z,51.4
2022-09-29T06:55:43.241Z,50.6
2022-09-29T06:56:45.194Z,50.7
2022-09-29T06:57:46.195Z,50.5
2022-09-29T06:58:47.134Z,50.6
2022-09-29T06:59:48.214Z,51.1
2022-09-29T07:00:50.582Z,51.1
2022-09-29T07:01:50.728Z,51.2
2022-09-29T07:02:51.193Z,51.1
2022-09-29T07:03:52.233Z,50.9
2022-09-29T07:04:53.282Z,51.8
2022-09-29T07:06:18.625Z,52.2
2022-09-29T07:06:57.314Z,52.4
2022-09-29T07:08:01.165Z,51.9
2022-09-29T07:09:01.221Z,51.3
2022-09-29T07:10:02.334Z,51.3
2022-09-29T07:11:04.354Z,51.3
2022-09-29T07:12:06.113Z,50.8
2022-09-29T07:13:07.246Z,50.4
2022-09-29T07:14:08.232Z,50.5
2022-09-29T07:15:09.234Z,50.9
2022-09-29T07:16:10.237Z,50.5
2022-09-29T07:17:11.174Z,49.8
2022-09-29T07:18:12.213Z,49.8
2022-09-29T07:19:13.286Z,50.4
2022-09-29T07:20:14.293Z,51.8
2022-09-29T07:21:16.357Z,52.3
2022-09-29T07:22:18.174Z,52.3
2022-09-29T07:23:19.196Z,52.1
2022-09-29T07:24:20.282Z,52.1
2022-09-29T07:25:40.154Z,52.1
2022-09-29T07:26:23.318Z,52.9
2022-09-29T07:27:25.233Z,53.5
2022-09-29T07:28:26.183Z,52.7
2022-09-29T07:29:27.201Z,53.3
2022-09-29T07:30:36.974Z,53.3
2022-09-29T07:31:31.739Z,52.9
2022-09-29T07:32:31.316Z,52.2
2022-09-29T07:33:38.742Z,52.1
2022-09-29T07:34:35.113Z,51.8
2022-09-29T07:35:39.891Z,51.3
2022-09-29T07:36:38.175Z,51.3
2022-09-29T07:37:39.094Z,50.9
2022-09-29T07:38:40.174Z,49.5
2022-09-29T07:39:41.135Z,49.7
2022-09-29T07:40:42.321Z,50.4
2022-09-29T07:41:43.226Z,50.2
2022-09-29T07:42:44.294Z,50.3
2022-09-29T07:43:46.244Z,49.9
2022-09-29T07:44:51.541Z,49.8
2022-09-29T07:45:48.280Z,49.9
2022-09-29T07:46:49.118Z,50.3
2022-09-29T07:47:50.135Z,50.8
2022-09-29T07:48:51.154Z,51
2022-09-29T07:49:52.294Z,51
2022-09-29T07:50:54.433Z,50.6
2022-09-29T07:51:56.215Z,49.7
2022-09-29T07:52:57.234Z,48.8
2022-09-29T07:53:58.198Z,48.2
2022-09-29T07:54:59.220Z,48.7
2022-09-29T07:56:00.210Z,48.4
2022-09-29T07:57:01.193Z,47.2
2022-09-29T07:58:02.215Z,46.6
2022-09-29T07:59:03.268Z,46.4
2022-09-29T08:00:04.214Z,47.1
2022-09-29T08:01:05.315Z,47.5
2022-09-29T08:02:06.269Z,47.9
2022-09-29T08:03:07.213Z,47.5
2022-09-29T08:04:08.173Z,46.9
2022-09-29T08:05:09.180Z,46.3
2022-09-29T08:06:10.254Z,46.5
2022-09-29T08:07:11.193Z,46.4
2022-09-29T08:08:12.193Z,46
2022-09-29T08:09:13.201Z,47.4
2022-09-29T08:10:17.563Z,47.4
2022-09-29T08:11:25.503Z,46.8
2022-09-29T08:12:16.174Z,45.9
2022-09-29T08:13:17.293Z,45.4
2022-09-29T08:14:18.240Z,45.2
2022-09-29T08:15:19.253Z,45
2022-09-29T08:16:20.353Z,44.7
2022-09-29T08:17:22.214Z,44.2
2022-09-29T08:18:23.293Z,44.1
2022-09-29T08:19:25.214Z,43.7
2022-09-29T08:20:26.221Z,43.2
2022-09-29T08:21:27.242Z,43.2
2022-09-29T08:22:28.193Z,43.2
2022-09-29T08:23:29.154Z,43.3
2022-09-29T08:24:30.213Z,43.8
2022-09-29T08:25:31.213Z,44.5
2022-09-29T08:26:41.074Z,45.8
2022-09-29T08:27:33.968Z,44.4
2022-09-29T08:28:34.193Z,43.4
2022-09-29T08:29:43.652Z,43.1
2022-09-29T08:30:36.242Z,43.5
2022-09-29T08:31:37.409Z,43.7
2022-09-29T08:32:38.273Z,44.1
2022-09-29T08:33:39.203Z,44.4
2022-09-29T08:34:40.077Z,43.8
2022-09-29T08:35:41.214Z,42.6
2022-09-29T08:36:42.204Z,43.2
2022-09-29T08:37:43.214Z,44.3
2022-09-29T08:38:44.363Z,44.5
2022-09-29T08:39:46.274Z,43.5
2022-09-29T08:40:47.281Z,42.3
2022-09-29T08:41:48.233Z,41.4
2022-09-29T08:42:49.417Z,41.2
2022-09-29T08:43:50.194Z,41.8
2022-09-29T08:44:51.234Z,41.2
2022-09-29T08:45:59.618Z,40.4
2022-09-29T08:47:03.363Z,41.8
2022-09-29T08:47:54.350Z,42.3
2022-09-29T08:48:58.558Z,42.2
2022-09-29T08:49:56.295Z,42.7
2022-09-29T08:50:57.361Z,40.9
2022-09-29T08:52:10.413Z,40.6
2022-09-29T08:53:00.206Z,40.3
2022-09-29T08:54:03.775Z,41.2
2022-09-29T08:55:11.883Z,40.2
2022-09-29T08:56:04.223Z,40
2022-09-29T08:57:05.195Z,39.8
2022-09-29T08:58:06.323Z,40.5
2022-09-29T08:59:08.194Z,40.2
2022-09-29T09:00:09.397Z,40.6
2022-09-29T09:01:11.527Z,41.5
2022-09-29T09:02:13.501Z,42.1
2022-09-29T09:03:15.175Z,42
2022-09-29T09:04:16.216Z,41.1
2022-09-29T09:05:17.335Z,40.8
2022-09-29T09:06:19.341Z,40.6
2022-09-29T09:07:20.215Z,40.2
2022-09-29T09:08:21.329Z,40.1
2022-09-29T09:09:22.254Z,40
2022-09-29T09:10:23.333Z,40.8
2022-09-29T09:11:25.354Z,41.6
2022-09-29T09:12:27.196Z,42.1
2022-09-29T09:13:28.242Z,43.6
2022-09-29T09:14:29.166Z,42.6
2022-09-29T09:15:30.180Z,42.7
2022-09-29T09:16:31.295Z,43.7
2022-09-29T09:17:32.275Z,43.8
2022-09-29T09:18:33.254Z,43.4
2022-09-29T09:19:34.272Z,42.7
2022-09-29T09:20:35.229Z,42.5
2022-09-29T09:21:36.293Z,42
2022-09-29T09:22:40.418Z,41.7
2022-09-29T09:23:38.314Z,42.3
2022-09-29T09:24:39.293Z,41.5
2022-09-29T09:25:40.242Z,40.9
2022-09-29T09:26:41.300Z,42
2022-09-29T09:27:42.254Z,41.2
2022-09-29T09:28:43.221Z,41.2
2022-09-29T09:29:44.213Z,41.4
2022-09-29T09:30:45.393Z,41.1
2022-09-29T09:31:46.435Z,41.4
2022-09-29T09:32:48.236Z,40.4
2022-09-29T09:34:00.146Z,40
2022-09-29T09:34:51.234Z,40
2022-09-29T09:35:58.324Z,39.7
2022-09-29T09:37:02.746Z,41.6
2022-09-29T09:37:54.305Z,40.4
2022-09-29T09:38:55.235Z,41
2022-09-29T09:39:56.258Z,40.7
2022-09-29T09:40:57.274Z,40.5
2022-09-29T09:41:58.302Z,40.6
2022-09-29T09:42:59.318Z,41.9
2022-09-29T09:44:00.281Z,41.7
2022-09-29T09:45:01.297Z,40.9
2022-09-29T09:46:02.493Z,40.9
2022-09-29T09:47:03.333Z,40.8
2022-09-29T09:48:04.313Z,40.9
2022-09-29T09:49:05.253Z,39.5
2022-09-29T09:50:06.334Z,38.8
2022-09-29T09:51:07.373Z,39.3
2022-09-29T09:52:09.345Z,39
2022-09-29T09:53:11.671Z,38.8
2022-09-29T09:54:12.324Z,39.1
2022-09-29T09:55:13.275Z,40.5
2022-09-29T09:56:14.274Z,40.4
2022-09-29T09:57:15.234Z,40.4
2022-09-29T09:58:16.296Z,40.5
2022-09-29T09:59:17.376Z,39.8
2022-09-29T10:00:18.282Z,38.8
2022-09-29T10:01:19.405Z,38.3
2022-09-29T10:02:20.367Z,38.7
2022-09-29T10:03:21.293Z,39.2
2022-09-29T10:04:22.323Z,38.5
2022-09-29T10:05:23.300Z,38
2022-09-29T10:06:24.293Z,38.7
2022-09-29T10:07:25.354Z,39.3
2022-09-29T10:08:26.276Z,40.4
2022-09-29T10:09:27.314Z,40
2022-09-29T10:10:28.294Z,40.1
2022-09-29T10:11:29.233Z,38.8
2022-09-29T10:12:30.233Z,38.6
2022-09-29T10:13:31.256Z,37.9
2022-09-29T10:14:32.314Z,38.3
2022-09-29T10:15:33.213Z,37.4
2022-09-29T10:16:34.296Z,38.3
2022-09-29T10:17:35.233Z,37.2
2022-09-29T10:18:36.284Z,38
2022-09-29T10:19:37.313Z,37.9
2022-09-29T10:20:38.320Z,38.4
2022-09-29T10:21:39.321Z,36.8
2022-09-29T10:22:40.353Z,37.4
2022-09-29T10:23:41.295Z,38.3
2022-09-29T10:24:42.284Z,36.7
2022-09-29T10:25:43.342Z,37
2022-09-29T10:26:44.187Z,36.6
2022-09-29T10:27:45.312Z,36.2
2022-09-29T10:28:46.273Z,34.6
2022-09-29T10:29:50.053Z,34.9
2022-09-29T10:30:51.378Z,36.5
2022-09-29T10:31:52.260Z,38.2
2022-09-29T10:32:53.334Z,39.6
2022-09-29T10:33:54.377Z,40.5
2022-09-29T10:34:55.321Z,39.3
2022-09-29T10:35:56.273Z,37.9
2022-09-29T10:36:57.377Z,36.5
2022-09-29T10:37:59.260Z,37.1
2022-09-29T10:39:03.219Z,36
2022-09-29T10:40:01.280Z,36.4
2022-09-29T10:41:02.362Z,38.3
2022-09-29T10:42:03.284Z,38.7
2022-09-29T10:44:05.280Z,36.5
2022-09-29T10:45:06.441Z,35.5
2022-09-29T10:46:08.537Z,35.9
2022-09-29T10:47:10.416Z,36
2022-09-29T10:48:12.494Z,35.7
2022-09-29T10:49:14.253Z,36.3
2022-09-29T10:50:15.514Z,34.8
2022-09-29T10:51:17.354Z,34.4
2022-09-29T10:52:18.414Z,35.6
2022-09-29T10:53:20.248Z,33.5
2022-09-29T10:54:22.754Z,33.7
2022-09-29T10:55:24.313Z,35
2022-09-29T10:56:25.254Z,34.4
2022-09-29T10:57:26.293Z,34.3
2022-09-29T10:58:37.362Z,34.3
2022-09-29T10:59:29.281Z,32.3
2022-09-29T11:00:30.473Z,33.3
2022-09-29T11:01:32.669Z,34.6
2022-09-29T11:02:34.586Z,34.8
2022-09-29T11:03:36.234Z,36.1
2022-09-29T11:04:37.194Z,36.8
2022-09-29T11:05:38.302Z,37.3
2022-09-29T11:06:43.098Z,37.5
2022-09-29T11:07:40.315Z,37.7
2022-09-29T11:08:41.413Z,39
2022-09-29T11:09:43.411Z,39
2022-09-29T11:10:44.270Z,38.9
2022-09-29T11:11:45.513Z,37.8
2022-09-29T11:12:47.514Z,37.9
2022-09-29T11:13:49.493Z,38.6
2022-09-29T11:14:51.323Z,38.9
2022-09-29T11:15:52.299Z,40.5
2022-09-29T11:16:53.447Z,40.5
2022-09-29T11:17:55.340Z,38.8
2022-09-29T11:18:56.297Z,37.4
2022-09-29T11:19:57.314Z,37.3
2022-09-29T11:20:58.376Z,37.5
2022-09-29T11:21:59.834Z,37.7
2022-09-29T11:23:01.455Z,38.4
2022-09-29T11:24:03.453Z,38
2022-09-29T11:25:05.263Z,36.3
2022-09-29T11:26:06.254Z,36.8
2022-09-29T11:27:07.494Z,37.3
2022-09-29T11:28:09.293Z,36.7
2022-09-29T11:29:10.360Z,36.7
2022-09-29T11:30:11.354Z,37.8
2022-09-29T11:31:12.334Z,38.4
2022-09-29T11:32:13.861Z,36.9
2022-09-29T11:33:14.281Z,36.3
2022-09-29T11:34:15.238Z,35.2
2022-09-29T11:35:16.216Z,35
2022-09-29T11:36:17.392Z,34.7
2022-09-29T11:37:19.475Z,34
2022-09-29T11:38:21.274Z,33.8
2022-09-29T11:39:22.273Z,34.6
2022-09-29T11:40:23.292Z,32.8
2022-09-29T11:41:24.315Z,32.8
2022-09-29T11:42:25.235Z,32.7
2022-09-29T11:43:26.253Z,33.8
2022-09-29T11:44:27.374Z,33.8
2022-09-29T11:45:28.354Z,33.9
2022-09-29T11:46:29.327Z,35.1
2022-09-29T11:47:30.354Z,35.9
2022-09-29T11:48:31.437Z,34
2022-09-29T11:49:32.496Z,33.8
2022-09-29T11:50:34.313Z,33.9
2022-09-29T11:51:35.258Z,34.6
2022-09-29T11:52:36.333Z,35.5
2022-09-29T11:53:37.421Z,35.7
2022-09-29T11:54:39.495Z,35.7
2022-09-29T11:55:41.542Z,36.4
2022-09-29T11:56:43.285Z,36.3
2022-09-29T11:57:44.293Z,36.7
2022-09-29T11:58:45.433Z,35.6
2022-09-29T11:59:47.394Z,35.6
2022-09-29T12:00:48.375Z,35.6
2022-09-29T12:01:49.363Z,36.4
2022-09-29T12:02:50.391Z,35.2
2022-09-29T12:03:51.571Z,35.5
2022-09-29T12:04:53.401Z,34.8
2022-09-29T12:05:54.315Z,34.7
2022-09-29T12:06:55.334Z,34
2022-09-29T12:07:56.275Z,34.5
2022-09-29T12:08:57.476Z,34.9
2022-09-29T12:09:59.353Z,33.8
2022-09-29T12:11:00.807Z,34.1
2022-09-29T12:12:22.413Z,33.8
2022-09-29T12:13:04.446Z,34.5
2022-09-29T12:14:06.362Z,35.2
2022-09-29T12:15:07.347Z,34.2
2022-09-29T12:16:08.394Z,33.6
2022-09-29T12:17:09.435Z,34.1
2022-09-29T12:18:11.333Z,34.3
2022-09-29T12:19:12.562Z,35
2022-09-29T12:20:14.343Z,34.5
2022-09-29T12:21:16.943Z,34.2
2022-09-29T12:22:16.353Z,33.4
2022-09-29T12:23:17.564Z,32.8
2022-09-29T12:24:19.536Z,31.4
2022-09-29T12:25:20.395Z,29.9
2022-09-29T12:26:21.366Z,29.4
2022-09-29T12:27:22.400Z,29.1
2022-09-29T12:28:23.354Z,29.3
2022-09-29T12:29:24.363Z,30.3
2022-09-29T12:30:25.395Z,30.5
2022-09-29T12:31:26.393Z,30.4
2022-09-29T12:32:27.354Z,30
2022-09-29T12:33:28.394Z,30.3
2022-09-29T12:34:29.405Z,31.1
2022-09-29T12:35:30.234Z,30.3
2022-09-29T12:36:31.336Z,29.4
2022-09-29T12:37:32.399Z,30.4
2022-09-29T12:38:33.415Z,30.3
2022-09-29T12:39:34.302Z,29.9
2022-09-29T12:40:35.356Z,30.5
2022-09-29T12:41:36.334Z,29.7
2022-09-29T12:42:37.395Z,30
2022-09-29T12:43:38.292Z,29.6
2022-09-29T12:44:39.362Z,30
2022-09-29T12:45:40.334Z,29.2
2022-09-29T12:46:41.374Z,29
2022-09-29T12:47:42.360Z,28.5
2022-09-29T12:48:43.383Z,28.5
2022-09-29T12:49:44.467Z,29.4
2022-09-29T12:50:45.358Z,29.5
2022-09-29T12:51:46.315Z,29.3
2022-09-29T12:52:47.353Z,29.3
2022-09-29T12:53:48.455Z,28.7
2022-09-29T12:54:49.393Z,28.6
2022-09-29T12:55:50.535Z,28.5
2022-09-29T12:56:52.395Z,26.2
2022-09-29T12:57:53.354Z,26
2022-09-29T12:58:54.414Z,27.3
2022-09-29T12:59:55.394Z,28.2
2022-09-29T13:00:56.294Z,28.8
2022-09-29T13:01:57.514Z,29.1
2022-09-29T13:02:59.314Z,29.9
2022-09-29T13:04:00.375Z,30.2
2022-09-29T13:05:04.223Z,30.5
2022-09-29T13:06:05.334Z,30.1
2022-09-29T13:07:06.253Z,29.3
2022-09-29T13:08:07.374Z,28.6
2022-09-29T13:09:08.430Z,28.3
2022-09-29T13:10:09.474Z,27.5
2022-09-29T13:11:11.433Z,27.8
2022-09-29T13:12:12.463Z,27.1
2022-09-29T13:13:14.478Z,26.5
2022-09-29T13:14:16.513Z,26.5
2022-09-29T13:15:18.418Z,27
2022-09-29T13:16:19.455Z,26.9
2022-09-29T13:17:20.394Z,26.8
2022-09-29T13:18:21.373Z,26.5
2022-09-29T13:19:34.057Z,26.5
2022-09-29T13:20:23.395Z,26.5
2022-09-29T13:21:24.396Z,26.4
2022-09-29T13:22:25.340Z,26.8
2022-09-29T13:23:26.434Z,26.3
2022-09-29T13:24:27.313Z,26.9
2022-09-29T13:25:28.459Z,26.9
2022-09-29T13:26:29.335Z,26.9
2022-09-29T13:27:30.595Z,26.6
2022-09-29T13:28:32.715Z,26.4
2022-09-29T13:29:34.374Z,26.9
2022-09-29T13:30:35.631Z,27.3
2022-09-29T13:31:37.499Z,27.8
2022-09-29T13:32:38.445Z,26.8
2022-09-29T13:33:39.313Z,25.7
2022-09-29T13:34:40.463Z,25.9
2022-09-29T13:35:41.447Z,26.5
2022-09-29T13:36:42.354Z,26.2
2022-09-29T13:37:43.374Z,25.1
2022-09-29T13:38:44.374Z,24.9
2022-09-29T13:39:45.474Z,25.6
2022-09-29T13:40:47.616Z,25.5
2022-09-29T13:41:49.406Z,25
2022-09-29T13:42:50.456Z,26.2
2022-09-29T13:43:51.396Z,24.7
2022-09-29T13:44:52.445Z,23.7